Norbank — PGIS — position and weather

sailwx.info

Track history (hours):
 
Tides and Currents Weather Stations Pressure Air Temp Water Temp Dewpoint Dewpoint Depression Visibility Wind Speed Wind Dir Waves Ship Positions

Norbank

Operator: P & O Ferries

Last reported at 2020-Jan-19 16:16 UTC. Time now 2020-Jan-19 17:03 UTC.
Position N 53°21' W 006°13'.

Length 167 m; draft 5.7 m.

Type: Ship (hazmat cat A). MMSI: 246213000.

Date/timePositionNaut miles runAvg speedWind from/ knotsBaromVisibWave heightAir tempDewpointWater temp
2020-Jan-19 16:16N 53°21' W 006°13'0 0.0
2020-Jan-19 12:42N 53°21' W 006°13'0 0.0
2020-Jan-19 10:59N 53°21' W 006°13'0 0.0
2020-Jan-19 10:26N 53°21' W 006°13'0 0.0
2020-Jan-19 09:40N 53°21' W 006°13'0 0.1
2020-Jan-19 08:19N 53°21' W 006°13'0 0.0
2020-Jan-19 06:30N 53°21' W 006°13'18 8.9
2020-Jan-19 04:29N 53°25' W 005°44'9314.4
2020-Jan-18 22:00N 53°32' W 003°08'611.9
2020-Jan-18 21:31N 53°27' W 003°01'0 0.4
2020-Jan-18 20:28N 53°27' W 003°01'0 0.0
2020-Jan-18 19:30N 53°27' W 003°01'0 0.0
2020-Jan-18 18:00N 53°27' W 003°01'0 0.0
2020-Jan-18 17:29N 53°27' W 003°01'1 1.0
2020-Jan-18 16:30N 53°26' W 003°01'7 6.9
2020-Jan-18 15:31N 53°32' W 003°08'714.5
2020-Jan-18 15:01N 53°31' W 003°20'10311.9
2020-Jan-18 06:20N 53°21' W 006°13'0 0.0
2020-Jan-18 05:59N 53°21' W 006°13'18 8.9
2020-Jan-18 04:00N 53°25' W 005°44'9712.1
2020-Jan-17 19:58N 53°27' W 003°01'0 0.0
2020-Jan-17 18:28N 53°27' W 003°01'0 0.0
2020-Jan-17 17:30N 53°27' W 003°01'0 0.2
2020-Jan-17 16:30N 53°27' W 003°01'1610.4
2020-Jan-17 15:01N 53°31' W 003°27'10015.2
2020-Jan-17 08:27N 53°21' W 006°13'0 0.0
2020-Jan-17 06:42N 53°21' W 006°13'0 0.2
2020-Jan-17 05:00N 53°21' W 006°13'510.2
2020-Jan-17 04:31N 53°20' W 006°04'1019.0
2020-Jan-17 04:00N 53°23' W 005°49'7218.1
2020-Jan-17 00:00N 53°34' W 003°49'29 4.5
2020-Jan-16 17:28N 53°27' W 003°01'0 0.0
2020-Jan-16 17:00N 53°27' W 003°01'3310.9
2020-Jan-16 14:00N 53°32' W 003°55'8118.1
2020-Jan-16 09:30N 53°21' W 006°10'2 1.5
2020-Jan-16 08:29N 53°21' W 006°13'11212.5
2020-Jan-15 23:31N 53°31' W 003°06'5 4.8
2020-Jan-15 22:30N 53°27' W 003°01'0 0.1
2020-Jan-15 19:59N 53°27' W 003°01'0 0.0
2020-Jan-15 19:28N 53°27' W 003°01'0 0.3
2020-Jan-15 18:00N 53°27' W 003°01'32 8.0
2020-Jan-15 14:00N 53°32' W 003°54'7817.2
2020-Jan-15 09:30N 53°20' W 006°02'6 5.0
2020-Jan-15 08:13N 53°21' W 006°13'0 0.0
2020-Jan-15 05:01N 53°21' W 006°13'8917.6
2020-Jan-14 23:58N 53°34' W 003°46'2711.1
2020-Jan-14 21:30N 53°27' W 003°01'0 0.8
2020-Jan-14 20:59N 53°27' W 003°01'0 0.0
2020-Jan-14 19:29N 53°27' W 003°01'0 0.0
2020-Jan-14 18:28N 53°27' W 003°01'0 0.0
2020-Jan-14 17:58N 53°27' W 003°01'0 0.0
2020-Jan-14 17:28N 53°27' W 003°01'0 0.0
2020-Jan-14 17:00N 53°27' W 003°01'15 7.7
2020-Jan-14 15:00N 53°31' W 003°26'714.4
2020-Jan-14 14:30N 53°31' W 003°38'8518.2
2020-Jan-14 09:50N 53°21' W 005°60'8 2.9
2020-Jan-14 07:09N 53°21' W 006°13'0 0.0
2020-Jan-14 05:51N 53°21' W 006°13'0 0.0
2020-Jan-14 05:18N 53°21' W 006°13'11513.0
2020-Jan-13 20:30N 53°27' W 003°01'0 0.0
2020-Jan-13 17:59N 53°27' W 003°01'0 0.0
2020-Jan-13 16:58N 53°27' W 003°01'0 0.0
2020-Jan-13 11:59N 53°27' W 003°01'0 0.0
2020-Jan-13 10:59N 53°27' W 003°01'0 0.0
2020-Jan-13 08:00N 53°27' W 003°01'0 0.0
2020-Jan-13 06:30N 53°27' W 003°01'1 0.5
2020-Jan-13 05:01N 53°27' W 003°02'713.3
2020-Jan-13 04:31N 53°32' W 003°11'714.9
2020-Jan-13 04:01N 53°31' W 003°24'510.5
2020-Jan-13 03:30N 53°31' W 003°33'1510.1
2020-Jan-13 02:01N 53°32' W 003°58'510.4
2020-Jan-13 01:31N 53°32' W 004°07'7615.2
2020-Jan-12 20:30N 53°21' W 006°13'0 0.0
2020-Jan-12 18:26N 53°21' W 006°13'0 0.1
2020-Jan-12 17:30N 53°21' W 006°13'0 0.0
2020-Jan-12 16:28N 53°21' W 006°13'0 0.0
2020-Jan-12 15:49N 53°21' W 006°13'0 0.0
2020-Jan-12 15:06N 53°21' W 006°13'0 0.0
2020-Jan-12 12:20N 53°21' W 006°13'0 0.0
2020-Jan-12 11:29N 53°21' W 006°13'0 0.0
2020-Jan-12 10:19N 53°21' W 006°13'0 0.1
2020-Jan-12 08:58N 53°21' W 006°13'0 0.0
2020-Jan-12 08:15N 53°21' W 006°13'0 0.0
2020-Jan-12 06:51N 53°21' W 006°13'10413.2
2020-Jan-11 23:00N 53°32' W 003°20'816.5
2020-Jan-11 22:30N 53°31' W 003°06'5 4.8
2020-Jan-11 21:28N 53°27' W 003°01'0 0.9
2020-Jan-11 20:59N 53°27' W 003°01'0 0.0
2020-Jan-11 17:00N 53°27' W 003°01'2 1.6
2020-Jan-11 16:00N 53°28' W 003°03'11311.9
2020-Jan-11 06:30N 53°21' W 006°13'9913.3
2020-Jan-10 23:01N 53°32' W 003°27'17 3.0
2020-Jan-10 17:30N 53°27' W 003°01'0 0.0
2020-Jan-10 17:00N 53°27' W 003°01'5 3.7
2020-Jan-10 15:31N 53°31' W 003°07'11115.9
2020-Jan-10 08:30N 53°21' W 006°13'0 0.0
2020-Jan-10 08:00N 53°21' W 006°13'0 0.0
2020-Jan-10 07:30N 53°21' W 006°13'0 0.0
2020-Jan-10 07:00N 53°21' W 006°13'0 0.0
2020-Jan-10 06:30N 53°21' W 006°13'11013.8
2020-Jan-09 22:31N 53°32' W 003°09'6 1.8
2020-Jan-09 18:59N 53°27' W 003°01'0 0.0
2020-Jan-09 17:29N 53°27' W 003°01'  
Track history (hours):
 
Tides and Currents Weather Stations Pressure Air Temp Water Temp Dewpoint Dewpoint Depression Visibility Wind Speed Wind Dir Waves Ship Positions

Norbank

Operator: P & O Ferries

Last reported at 2020-Jan-19 16:16 UTC. Time now 2020-Jan-19 17:03 UTC.
Position N 53°21' W 006°13'.

Length 167 m; draft 5.7 m.

Type: Ship (hazmat cat A). MMSI: 246213000.

Date/timePositionNaut miles runAvg speedWind from/ knotsBaromVisibWave heightAir tempDewpointWater temp
2020-Jan-19 16:16N 53°21' W 006°13'0 0.0
2020-Jan-19 12:42N 53°21' W 006°13'0 0.0
2020-Jan-19 10:59N 53°21' W 006°13'0 0.0
2020-Jan-19 10:26N 53°21' W 006°13'0 0.0
2020-Jan-19 09:40N 53°21' W 006°13'0 0.1
2020-Jan-19 08:19N 53°21' W 006°13'0 0.0
2020-Jan-19 06:30N 53°21' W 006°13'18 8.9
2020-Jan-19 04:29N 53°25' W 005°44'9314.4
2020-Jan-18 22:00N 53°32' W 003°08'611.9
2020-Jan-18 21:31N 53°27' W 003°01'0 0.4
2020-Jan-18 20:28N 53°27' W 003°01'0 0.0
2020-Jan-18 19:30N 53°27' W 003°01'0 0.0
2020-Jan-18 18:00N 53°27' W 003°01'0 0.0
2020-Jan-18 17:29N 53°27' W 003°01'1 1.0
2020-Jan-18 16:30N 53°26' W 003°01'7 6.9
2020-Jan-18 15:31N 53°32' W 003°08'714.5
2020-Jan-18 15:01N 53°31' W 003°20'10311.9
2020-Jan-18 06:20N 53°21' W 006°13'0 0.0
2020-Jan-18 05:59N 53°21' W 006°13'18 8.9
2020-Jan-18 04:00N 53°25' W 005°44'9712.1
2020-Jan-17 19:58N 53°27' W 003°01'0 0.0
2020-Jan-17 18:28N 53°27' W 003°01'0 0.0
2020-Jan-17 17:30N 53°27' W 003°01'0 0.2
2020-Jan-17 16:30N 53°27' W 003°01'1610.4
2020-Jan-17 15:01N 53°31' W 003°27'10015.2
2020-Jan-17 08:27N 53°21' W 006°13'0 0.0
2020-Jan-17 06:42N 53°21' W 006°13'0 0.2
2020-Jan-17 05:00N 53°21' W 006°13'510.2
2020-Jan-17 04:31N 53°20' W 006°04'1019.0
2020-Jan-17 04:00N 53°23' W 005°49'7218.1
2020-Jan-17 00:00N 53°34' W 003°49'29 4.5
2020-Jan-16 17:28N 53°27' W 003°01'0 0.0
2020-Jan-16 17:00N 53°27' W 003°01'3310.9
2020-Jan-16 14:00N 53°32' W 003°55'8118.1
2020-Jan-16 09:30N 53°21' W 006°10'2 1.5
2020-Jan-16 08:29N 53°21' W 006°13'11212.5
2020-Jan-15 23:31N 53°31' W 003°06'5 4.8
2020-Jan-15 22:30N 53°27' W 003°01'0 0.1
2020-Jan-15 19:59N 53°27' W 003°01'0 0.0
2020-Jan-15 19:28N 53°27' W 003°01'0 0.3
2020-Jan-15 18:00N 53°27' W 003°01'32 8.0
2020-Jan-15 14:00N 53°32' W 003°54'7817.2
2020-Jan-15 09:30N 53°20' W 006°02'6 5.0
2020-Jan-15 08:13N 53°21' W 006°13'0 0.0
2020-Jan-15 05:01N 53°21' W 006°13'8917.6
2020-Jan-14 23:58N 53°34' W 003°46'2711.1
2020-Jan-14 21:30N 53°27' W 003°01'0 0.8
2020-Jan-14 20:59N 53°27' W 003°01'0 0.0
2020-Jan-14 19:29N 53°27' W 003°01'0 0.0
2020-Jan-14 18:28N 53°27' W 003°01'0 0.0
2020-Jan-14 17:58N 53°27' W 003°01'0 0.0
2020-Jan-14 17:28N 53°27' W 003°01'0 0.0
2020-Jan-14 17:00N 53°27' W 003°01'15 7.7
2020-Jan-14 15:00N 53°31' W 003°26'714.4
2020-Jan-14 14:30N 53°31' W 003°38'8518.2
2020-Jan-14 09:50N 53°21' W 005°60'8 2.9
2020-Jan-14 07:09N 53°21' W 006°13'0 0.0
2020-Jan-14 05:51N 53°21' W 006°13'0 0.0
2020-Jan-14 05:18N 53°21' W 006°13'11513.0
2020-Jan-13 20:30N 53°27' W 003°01'0 0.0
2020-Jan-13 17:59N 53°27' W 003°01'0 0.0
2020-Jan-13 16:58N 53°27' W 003°01'0 0.0
2020-Jan-13 11:59N 53°27' W 003°01'0 0.0
2020-Jan-13 10:59N 53°27' W 003°01'0 0.0
2020-Jan-13 08:00N 53°27' W 003°01'0 0.0
2020-Jan-13 06:30N 53°27' W 003°01'1 0.5
2020-Jan-13 05:01N 53°27' W 003°02'713.3
2020-Jan-13 04:31N 53°32' W 003°11'714.9
2020-Jan-13 04:01N 53°31' W 003°24'510.5
2020-Jan-13 03:30N 53°31' W 003°33'1510.1
2020-Jan-13 02:01N 53°32' W 003°58'510.4
2020-Jan-13 01:31N 53°32' W 004°07'7615.2
2020-Jan-12 20:30N 53°21' W 006°13'0 0.0
2020-Jan-12 18:26N 53°21' W 006°13'0 0.1
2020-Jan-12 17:30N 53°21' W 006°13'0 0.0
2020-Jan-12 16:28N 53°21' W 006°13'0 0.0
2020-Jan-12 15:49N 53°21' W 006°13'0 0.0
2020-Jan-12 15:06N 53°21' W 006°13'0 0.0
2020-Jan-12 12:20N 53°21' W 006°13'0 0.0
2020-Jan-12 11:29N 53°21' W 006°13'0 0.0
2020-Jan-12 10:19N 53°21' W 006°13'0 0.1
2020-Jan-12 08:58N 53°21' W 006°13'0 0.0
2020-Jan-12 08:15N 53°21' W 006°13'0 0.0
2020-Jan-12 06:51N 53°21' W 006°13'10413.2
2020-Jan-11 23:00N 53°32' W 003°20'816.5
2020-Jan-11 22:30N 53°31' W 003°06'5 4.8
2020-Jan-11 21:28N 53°27' W 003°01'0 0.9
2020-Jan-11 20:59N 53°27' W 003°01'0 0.0
2020-Jan-11 17:00N 53°27' W 003°01'2 1.6
2020-Jan-11 16:00N 53°28' W 003°03'11311.9
2020-Jan-11 06:30N 53°21' W 006°13'9913.3
2020-Jan-10 23:01N 53°32' W 003°27'17 3.0
2020-Jan-10 17:30N 53°27' W 003°01'0 0.0
2020-Jan-10 17:00N 53°27' W 003°01'5 3.7
2020-Jan-10 15:31N 53°31' W 003°07'11115.9
2020-Jan-10 08:30N 53°21' W 006°13'0 0.0
2020-Jan-10 08:00N 53°21' W 006°13'0 0.0
2020-Jan-10 07:30N 53°21' W 006°13'0 0.0
2020-Jan-10 07:00N 53°21' W 006°13'0 0.0
2020-Jan-10 06:30N 53°21' W 006°13'11013.8
2020-Jan-09 22:31N 53°32' W 003°09'6 1.8
2020-Jan-09 18:59N 53°27' W 003°01'0 0.0
2020-Jan-09 17:29N 53°27' W 003°01'  

Dump ship's entire track history